createdAt,value
2018-04-25T00:00:24.653Z,46.60
2018-04-25T00:01:29.577Z,46.70
2018-04-25T00:02:34.339Z,46.60
2018-04-25T00:03:39.184Z,46.60
2018-04-25T00:04:43.986Z,46.60
2018-04-25T00:05:48.975Z,46.60
2018-04-25T00:06:53.879Z,46.60
2018-04-25T00:07:58.888Z,46.60
2018-04-25T00:09:03.855Z,46.70
2018-04-25T00:10:08.883Z,46.60
2018-04-25T00:11:13.670Z,46.60
2018-04-25T00:12:18.653Z,46.60
2018-04-25T00:13:23.497Z,47.30
2018-04-25T00:14:28.258Z,46.60
2018-04-25T00:15:33.257Z,46.60
2018-04-25T00:16:38.006Z,46.60
2018-04-25T00:17:42.781Z,46.60
2018-04-25T00:18:47.806Z,46.60
2018-04-25T00:19:52.839Z,46.60
2018-04-25T00:20:57.726Z,46.60
2018-04-25T00:22:02.430Z,46.60
2018-04-25T00:23:07.328Z,46.60
2018-04-25T00:24:12.197Z,46.60
2018-04-25T00:25:17.297Z,46.60
2018-04-25T00:26:22.199Z,46.60
2018-04-25T00:27:27.039Z,46.60
2018-04-25T00:28:31.885Z,46.60
2018-04-25T00:29:36.671Z,46.60
2018-04-25T00:30:41.584Z,46.60
2018-04-25T00:31:46.475Z,46.60
2018-04-25T00:32:51.499Z,47.30
2018-04-25T00:33:56.288Z,46.60
2018-04-25T00:35:01.155Z,46.60
2018-04-25T00:36:06.194Z,46.60
2018-04-25T00:37:11.217Z,46.60
2018-04-25T00:38:16.068Z,46.60
2018-04-25T00:39:21.038Z,46.60
2018-04-25T00:40:25.782Z,46.60
2018-04-25T00:41:30.861Z,46.60
2018-04-25T00:42:35.997Z,46.60
2018-04-25T00:43:40.776Z,46.60
2018-04-25T00:44:45.893Z,46.60
2018-04-25T00:45:50.826Z,46.60
2018-04-25T00:46:55.662Z,46.60
2018-04-25T00:48:00.875Z,46.60
2018-04-25T00:49:06.076Z,46.60
2018-04-25T00:50:11.121Z,46.60
2018-04-25T00:51:16.228Z,46.60
2018-04-25T00:52:21.229Z,46.60
2018-04-25T00:53:26.307Z,46.60
2018-04-25T00:54:31.403Z,46.60
2018-04-25T00:55:36.356Z,46.60
2018-04-25T00:56:41.396Z,46.70
2018-04-25T00:57:46.300Z,46.60
2018-04-25T00:58:51.388Z,46.60
2018-04-25T00:59:56.465Z,46.60
2018-04-25T01:01:05.078Z,46.60
2018-04-25T01:02:10.162Z,46.70
2018-04-25T01:03:15.095Z,46.60
2018-04-25T01:04:19.913Z,46.70
2018-04-25T01:05:24.756Z,46.60
2018-04-25T01:06:29.621Z,46.70
2018-04-25T01:07:34.849Z,46.60
2018-04-25T01:08:39.739Z,46.60
2018-04-25T01:09:44.792Z,46.70
2018-04-25T01:10:49.638Z,46.70
2018-04-25T01:11:54.702Z,46.70
2018-04-25T01:12:59.750Z,46.70
2018-04-25T01:14:04.900Z,46.60
2018-04-25T01:15:09.740Z,46.70
2018-04-25T01:16:14.843Z,46.60
2018-04-25T01:17:19.817Z,46.60
2018-04-25T01:18:24.620Z,46.70
2018-04-25T01:19:29.559Z,46.60
2018-04-25T01:20:37.627Z,46.70
2018-04-25T01:21:42.405Z,46.60
2018-04-25T01:22:47.450Z,46.60
2018-04-25T01:23:52.441Z,46.60
2018-04-25T01:24:57.359Z,46.70
2018-04-25T01:26:02.390Z,46.60
2018-04-25T01:27:07.454Z,46.60
2018-04-25T01:28:12.451Z,46.60
2018-04-25T01:29:17.493Z,46.70
2018-04-25T01:30:22.399Z,46.70
2018-04-25T01:31:27.280Z,46.60
2018-04-25T01:32:32.023Z,46.60
2018-04-25T01:33:36.866Z,46.60
2018-04-25T01:34:41.698Z,46.60
2018-04-25T01:35:46.539Z,46.70
2018-04-25T01:36:51.436Z,46.70
2018-04-25T01:37:56.453Z,46.70
2018-04-25T01:39:01.437Z,46.70
2018-04-25T01:40:06.197Z,46.70
2018-04-25T01:41:11.162Z,46.70
2018-04-25T01:42:15.941Z,46.70
2018-04-25T01:43:21.116Z,46.70
2018-04-25T01:44:26.121Z,46.70
2018-04-25T01:45:31.043Z,46.70
2018-04-25T01:46:35.883Z,46.70
2018-04-25T01:47:40.830Z,46.70
2018-04-25T01:48:45.753Z,46.70
2018-04-25T01:49:50.734Z,46.70
2018-04-25T01:50:55.650Z,46.70
2018-04-25T01:52:00.677Z,46.70
2018-04-25T01:53:05.668Z,46.70
2018-04-25T01:54:10.665Z,46.70
2018-04-25T01:55:15.463Z,46.70
2018-04-25T01:56:20.482Z,46.70
2018-04-25T01:57:25.804Z,46.70
2018-04-25T01:58:30.735Z,46.70
2018-04-25T01:59:35.719Z,46.70
2018-04-25T02:00:40.718Z,46.70
2018-04-25T02:01:45.599Z,46.70
2018-04-25T02:02:50.616Z,46.80
2018-04-25T02:03:55.468Z,46.70
2018-04-25T02:05:00.744Z,46.80
2018-04-25T02:06:05.750Z,46.80
2018-04-25T02:07:10.707Z,46.80
2018-04-25T02:08:15.492Z,46.80
2018-04-25T02:09:20.331Z,46.80
2018-04-25T02:10:25.005Z,46.80
2018-04-25T02:11:29.861Z,46.80
2018-04-25T02:12:35.362Z,46.80
2018-04-25T02:13:40.123Z,46.80
2018-04-25T02:14:44.984Z,46.80
2018-04-25T02:15:49.680Z,46.80
2018-04-25T02:16:54.459Z,46.80
2018-04-25T02:17:59.326Z,46.80
2018-04-25T02:19:04.269Z,46.90
2018-04-25T02:20:09.178Z,46.80
2018-04-25T02:21:14.076Z,46.80
2018-04-25T02:22:18.950Z,46.90
2018-04-25T02:23:23.703Z,46.80
2018-04-25T02:24:28.591Z,46.80
2018-04-25T02:25:33.523Z,46.80
2018-04-25T02:26:38.609Z,46.90
2018-04-25T02:27:43.666Z,46.90
2018-04-25T02:28:48.499Z,46.90
2018-04-25T02:29:53.422Z,46.90
2018-04-25T02:30:58.322Z,46.90
2018-04-25T02:32:03.252Z,46.90
2018-04-25T02:33:08.112Z,46.80
2018-04-25T02:34:13.079Z,46.80
2018-04-25T02:35:18.155Z,46.90
2018-04-25T02:36:23.027Z,46.90
2018-04-25T02:37:28.474Z,46.80
2018-04-25T02:38:33.526Z,46.90
2018-04-25T02:39:38.425Z,46.90
2018-04-25T02:40:43.361Z,46.80
2018-04-25T02:41:48.293Z,46.90
2018-04-25T02:42:53.301Z,46.80
2018-04-25T02:43:58.125Z,46.80
2018-04-25T02:45:03.232Z,46.80
2018-04-25T02:46:08.115Z,46.80
2018-04-25T02:47:13.038Z,46.80
2018-04-25T02:48:18.116Z,46.80
2018-04-25T02:49:23.117Z,46.80
2018-04-25T02:50:28.056Z,46.80
2018-04-25T02:51:33.037Z,47.00
2018-04-25T02:52:37.870Z,46.90
2018-04-25T02:53:43.010Z,46.90
2018-04-25T02:54:48.115Z,46.90
2018-04-25T02:55:53.238Z,46.90
2018-04-25T02:56:58.392Z,47.50
2018-04-25T02:58:03.513Z,46.90
2018-04-25T02:59:08.669Z,46.90
2018-04-25T03:00:13.607Z,47.00
2018-04-25T03:01:18.633Z,46.90
2018-04-25T03:02:23.758Z,46.90
2018-04-25T03:03:28.694Z,46.90
2018-04-25T03:04:33.792Z,46.90
2018-04-25T03:05:38.935Z,46.90
2018-04-25T03:06:43.817Z,46.90
2018-04-25T03:07:48.838Z,46.90
2018-04-25T03:08:53.841Z,46.90
2018-04-25T03:09:58.825Z,46.90
2018-04-25T03:11:03.747Z,46.90
2018-04-25T03:12:08.823Z,47.00
2018-04-25T03:13:13.632Z,47.00
2018-04-25T03:14:18.463Z,46.90
2018-04-25T03:15:23.456Z,46.90
2018-04-25T03:16:28.360Z,46.90
2018-04-25T03:17:33.385Z,46.90
2018-04-25T03:18:38.330Z,47.00
2018-04-25T03:19:43.535Z,47.00
2018-04-25T03:20:48.253Z,47.00
2018-04-25T03:21:53.179Z,47.00
2018-04-25T03:22:58.185Z,47.00
2018-04-25T03:24:03.056Z,47.00
2018-04-25T03:25:08.081Z,47.00
2018-04-25T03:26:12.882Z,47.00
2018-04-25T03:27:17.634Z,47.00
2018-04-25T03:28:22.516Z,47.00
2018-04-25T03:29:27.528Z,47.00
2018-04-25T03:30:32.465Z,47.00
2018-04-25T03:31:37.337Z,47.10
2018-04-25T03:32:42.298Z,47.10
2018-04-25T03:33:47.117Z,47.10
2018-04-25T03:34:52.130Z,47.00
2018-04-25T03:35:56.966Z,47.10
2018-04-25T03:37:01.837Z,47.00
2018-04-25T03:38:06.538Z,47.10
2018-04-25T03:39:11.562Z,47.10
2018-04-25T03:40:16.335Z,47.10
2018-04-25T03:41:21.832Z,47.10
2018-04-25T03:42:26.865Z,47.10
2018-04-25T03:43:31.860Z,47.10
2018-04-25T03:44:37.703Z,47.10
2018-04-25T03:45:42.836Z,47.10
2018-04-25T03:46:48.941Z,47.10
2018-04-25T03:47:53.851Z,47.10
2018-04-25T03:48:58.637Z,47.10
2018-04-25T03:50:03.608Z,47.10
2018-04-25T03:51:08.612Z,47.20
2018-04-25T03:52:13.563Z,47.20
2018-04-25T03:53:18.700Z,47.10
2018-04-25T03:54:23.750Z,47.20
2018-04-25T03:55:28.816Z,47.20
2018-04-25T03:56:33.948Z,47.20
2018-04-25T03:57:38.911Z,47.20
2018-04-25T03:58:43.832Z,47.20
2018-04-25T03:59:49.009Z,47.20
2018-04-25T04:00:53.883Z,47.20
2018-04-25T04:01:58.932Z,47.30
2018-04-25T04:03:03.827Z,47.20
2018-04-25T04:04:08.853Z,47.20
2018-04-25T04:05:13.784Z,47.20
2018-04-25T04:06:18.769Z,47.30
2018-04-25T04:07:23.709Z,47.30
2018-04-25T04:08:28.508Z,47.30
2018-04-25T04:09:33.797Z,47.30
2018-04-25T04:10:38.971Z,47.30
2018-04-25T04:11:43.802Z,47.20
2018-04-25T04:12:48.672Z,47.30
2018-04-25T04:13:56.080Z,47.30
2018-04-25T04:15:01.548Z,47.30
2018-04-25T04:16:06.463Z,47.30
2018-04-25T04:17:11.691Z,47.20
2018-04-25T04:18:16.673Z,47.30
2018-04-25T04:19:21.905Z,47.30
2018-04-25T04:20:26.749Z,47.30
2018-04-25T04:21:31.766Z,47.40
2018-04-25T04:22:36.871Z,47.60
2018-04-25T04:23:41.878Z,47.70
2018-04-25T04:24:46.691Z,47.70
2018-04-25T04:25:51.639Z,47.80
2018-04-25T04:26:56.528Z,47.90
2018-04-25T04:28:01.671Z,48.00
2018-04-25T04:29:06.771Z,48.20
2018-04-25T04:30:11.856Z,48.00
2018-04-25T04:31:16.937Z,47.90
2018-04-25T04:32:22.029Z,48.50
2018-04-25T04:33:27.333Z,49.10
2018-04-25T04:34:32.864Z,49.70
2018-04-25T04:35:38.205Z,50.20
2018-04-25T04:36:43.343Z,50.40
2018-04-25T04:37:48.219Z,50.70
2018-04-25T04:38:53.381Z,50.70
2018-04-25T04:39:58.493Z,51.00
2018-04-25T04:41:03.385Z,51.10
2018-04-25T04:42:08.367Z,51.20
2018-04-25T04:43:13.289Z,51.40
2018-04-25T04:44:18.316Z,51.40
2018-04-25T04:45:23.311Z,51.50
2018-04-25T04:46:28.484Z,51.70
2018-04-25T04:47:33.561Z,51.70
2018-04-25T04:48:38.579Z,51.70
2018-04-25T04:49:43.583Z,51.90
2018-04-25T04:50:48.404Z,51.80
2018-04-25T04:51:54.045Z,51.90
2018-04-25T04:52:59.047Z,52.00
2018-04-25T04:54:03.978Z,52.00
2018-04-25T04:55:09.011Z,52.00
2018-04-25T04:56:14.225Z,52.10
2018-04-25T04:57:19.202Z,52.10
2018-04-25T04:58:24.294Z,51.90
2018-04-25T04:59:29.071Z,51.70
2018-04-25T05:00:34.189Z,51.40
2018-04-25T05:01:39.240Z,51.20
2018-04-25T05:02:44.191Z,51.00
2018-04-25T05:03:49.187Z,50.80
2018-04-25T05:04:54.149Z,50.70
2018-04-25T05:05:59.178Z,50.60
2018-04-25T05:07:04.057Z,50.30
2018-04-25T05:08:09.080Z,50.30
2018-04-25T05:09:14.983Z,50.30
2018-04-25T05:10:20.090Z,50.20
2018-04-25T05:11:24.945Z,50.10
2018-04-25T05:12:29.916Z,50.10
2018-04-25T05:13:34.907Z,50.20
2018-04-25T05:14:39.897Z,50.30
2018-04-25T05:15:45.074Z,50.10
2018-04-25T05:16:50.181Z,50.20
2018-04-25T05:17:55.125Z,50.10
2018-04-25T05:19:00.030Z,50.10
2018-04-25T05:20:05.094Z,50.00
2018-04-25T05:21:09.885Z,50.00
2018-04-25T05:22:14.865Z,50.00
2018-04-25T05:23:19.891Z,50.20
2018-04-25T05:24:24.792Z,50.80
2018-04-25T05:25:29.850Z,51.20
2018-04-25T05:26:34.744Z,50.60
2018-04-25T05:27:39.851Z,50.30
2018-04-25T05:28:44.824Z,50.20
2018-04-25T05:29:49.657Z,50.20
2018-04-25T05:30:57.399Z,50.20
2018-04-25T05:32:02.336Z,50.20
2018-04-25T05:33:07.157Z,50.20
2018-04-25T05:34:13.453Z,50.20
2018-04-25T05:35:21.322Z,50.60
2018-04-25T05:36:27.147Z,51.10
2018-04-25T05:37:32.017Z,51.40
2018-04-25T05:38:37.191Z,51.70
2018-04-25T05:39:41.998Z,52.10
2018-04-25T05:40:46.882Z,52.00
2018-04-25T05:41:52.793Z,51.20
2018-04-25T05:42:57.682Z,50.80
2018-04-25T05:44:02.492Z,50.90
2018-04-25T05:45:07.705Z,50.60
2018-04-25T05:46:12.831Z,50.60
2018-04-25T05:47:17.834Z,50.60
2018-04-25T05:48:23.010Z,50.80
2018-04-25T05:49:28.114Z,51.30
2018-04-25T05:50:33.034Z,51.00
2018-04-25T05:51:38.195Z,50.80
2018-04-25T05:52:43.551Z,50.70
2018-04-25T05:53:48.549Z,50.60
2018-04-25T05:54:53.709Z,50.50
2018-04-25T05:55:58.873Z,50.50
2018-04-25T05:57:04.100Z,50.50
2018-04-25T05:58:09.059Z,50.50
2018-04-25T05:59:14.457Z,50.70
2018-04-25T06:00:19.636Z,50.80
2018-04-25T06:01:24.680Z,50.80
2018-04-25T06:02:29.978Z,50.80
2018-04-25T06:03:35.057Z,50.80
2018-04-25T06:04:40.074Z,50.90
2018-04-25T06:05:45.609Z,50.90
2018-04-25T06:06:50.532Z,50.60
2018-04-25T06:07:55.733Z,50.50
2018-04-25T06:09:00.681Z,50.40
2018-04-25T06:10:05.623Z,50.40
2018-04-25T06:11:10.671Z,50.40
2018-04-25T06:12:15.598Z,50.50
2018-04-25T06:13:20.450Z,50.50
2018-04-25T06:14:26.106Z,50.40
2018-04-25T06:15:31.841Z,50.40
2018-04-25T06:16:37.037Z,50.30
2018-04-25T06:17:42.232Z,50.30
2018-04-25T06:18:47.495Z,50.60
2018-04-25T06:19:52.565Z,50.60
2018-04-25T06:20:57.470Z,50.60
2018-04-25T06:22:02.518Z,50.70
2018-04-25T06:23:07.587Z,50.70
2018-04-25T06:24:12.684Z,50.50
2018-04-25T06:25:17.726Z,50.40
2018-04-25T06:26:22.697Z,50.40
2018-04-25T06:27:27.651Z,50.30
2018-04-25T06:28:32.815Z,50.30
2018-04-25T06:29:37.691Z,50.30
2018-04-25T06:30:42.893Z,50.30
2018-04-25T06:31:48.626Z,50.30
2018-04-25T06:32:58.682Z,50.40
2018-04-25T06:34:04.888Z,50.50
2018-04-25T06:35:10.256Z,50.70
2018-04-25T06:36:16.053Z,51.20
2018-04-25T06:37:22.333Z,51.20
2018-04-25T06:38:28.263Z,51.40
2018-04-25T06:39:33.108Z,51.50
2018-04-25T06:40:38.375Z,51.40
2018-04-25T06:41:43.954Z,52.00
2018-04-25T06:42:49.226Z,51.40
2018-04-25T06:43:54.032Z,51.40
2018-04-25T06:44:59.028Z,51.40
2018-04-25T06:46:04.095Z,51.30
2018-04-25T06:47:09.234Z,51.20
2018-04-25T06:48:14.746Z,51.40
2018-04-25T06:49:19.838Z,51.40
2018-04-25T06:50:24.945Z,51.30
2018-04-25T06:51:30.095Z,51.20
2018-04-25T06:52:35.148Z,51.30
2018-04-25T06:53:39.897Z,51.10
2018-04-25T06:54:44.819Z,51.20
2018-04-25T06:55:49.974Z,51.00
2018-04-25T06:56:55.165Z,51.10
2018-04-25T06:58:00.301Z,51.00
2018-04-25T06:59:05.591Z,51.60
2018-04-25T07:00:10.808Z,51.10
2018-04-25T07:01:15.655Z,51.30
2018-04-25T07:02:20.493Z,51.40
2018-04-25T07:03:25.306Z,51.50
2018-04-25T07:04:30.317Z,51.80
2018-04-25T07:05:35.362Z,52.00
2018-04-25T07:06:41.112Z,52.20
2018-04-25T07:07:46.229Z,52.50
2018-04-25T07:08:51.211Z,52.60
2018-04-25T07:09:56.171Z,52.70
2018-04-25T07:11:01.256Z,52.70
2018-04-25T07:12:06.069Z,52.90
2018-04-25T07:13:11.025Z,53.00
2018-04-25T07:14:16.112Z,52.90
2018-04-25T07:15:21.191Z,52.90
2018-04-25T07:16:26.083Z,53.10
2018-04-25T07:17:31.095Z,53.00
2018-04-25T07:18:36.124Z,53.00
2018-04-25T07:19:41.040Z,52.90
2018-04-25T07:20:46.001Z,52.80
2018-04-25T07:21:51.023Z,52.60
2018-04-25T07:22:55.781Z,52.70
2018-04-25T07:24:01.201Z,52.90
2018-04-25T07:25:06.330Z,52.80
2018-04-25T07:26:11.348Z,52.80
2018-04-25T07:27:16.278Z,53.40
2018-04-25T07:28:21.662Z,52.70
2018-04-25T07:29:27.269Z,52.70
2018-04-25T07:30:32.606Z,52.60
2018-04-25T07:31:37.656Z,52.60
2018-04-25T07:32:42.447Z,52.50
2018-04-25T07:33:47.500Z,52.50
2018-04-25T07:34:52.410Z,52.50
2018-04-25T07:35:57.412Z,52.40
2018-04-25T07:37:02.597Z,52.40
2018-04-25T07:38:07.518Z,52.30
2018-04-25T07:39:12.814Z,52.30
2018-04-25T07:40:19.480Z,52.20
2018-04-25T07:41:24.502Z,52.30
2018-04-25T07:42:29.695Z,52.20
2018-04-25T07:43:34.711Z,52.20
2018-04-25T07:44:39.942Z,52.20
2018-04-25T07:45:45.040Z,52.10
2018-04-25T07:46:50.152Z,52.10
2018-04-25T07:47:55.221Z,52.20
2018-04-25T07:49:00.128Z,52.10
2018-04-25T07:50:05.270Z,52.10
2018-04-25T07:51:10.439Z,52.20
2018-04-25T07:52:15.433Z,51.80
2018-04-25T07:53:20.579Z,52.10
2018-04-25T07:54:25.762Z,52.20
2018-04-25T07:55:30.708Z,52.50
2018-04-25T07:56:35.662Z,52.60
2018-04-25T07:57:40.677Z,52.60
2018-04-25T07:58:46.050Z,52.80
2018-04-25T07:59:51.193Z,52.90
2018-04-25T08:00:56.119Z,53.00
2018-04-25T08:02:01.209Z,53.00
2018-04-25T08:03:06.258Z,53.00
2018-04-25T08:04:11.490Z,53.10
2018-04-25T08:05:16.380Z,53.10
2018-04-25T08:06:21.481Z,53.10
2018-04-25T08:07:26.657Z,53.10
2018-04-25T08:08:31.758Z,53.00
2018-04-25T08:09:36.688Z,53.20
2018-04-25T08:10:42.817Z,53.00
2018-04-25T08:11:48.279Z,53.60
2018-04-25T08:12:53.135Z,52.80
2018-04-25T08:13:58.266Z,52.90
2018-04-25T08:15:03.095Z,52.90
2018-04-25T08:16:08.637Z,52.80
2018-04-25T08:17:13.501Z,52.80
2018-04-25T08:18:18.438Z,52.70
2018-04-25T08:19:23.832Z,52.60
2018-04-25T08:20:28.985Z,52.50
2018-04-25T08:21:33.952Z,52.50
2018-04-25T08:22:38.787Z,52.40
2018-04-25T08:23:43.947Z,52.40
2018-04-25T08:24:48.671Z,52.30
2018-04-25T08:25:53.388Z,52.30
2018-04-25T08:26:58.452Z,52.20
2018-04-25T08:28:03.392Z,52.20
2018-04-25T08:29:08.356Z,52.00
2018-04-25T08:30:13.243Z,52.10
2018-04-25T08:31:18.119Z,52.30
2018-04-25T08:32:23.574Z,52.20
2018-04-25T08:33:28.552Z,52.20
2018-04-25T08:34:33.446Z,52.20
2018-04-25T08:35:38.205Z,52.00
2018-04-25T08:36:43.337Z,52.10
2018-04-25T08:37:48.031Z,52.20
2018-04-25T08:38:53.085Z,52.30
2018-04-25T08:39:57.938Z,52.30
2018-04-25T08:41:02.929Z,52.30
2018-04-25T08:42:08.084Z,52.40
2018-04-25T08:43:13.132Z,52.60
2018-04-25T08:44:17.931Z,52.30
2018-04-25T08:45:22.914Z,52.70
2018-04-25T08:46:27.659Z,52.70
2018-04-25T08:47:32.755Z,52.60
2018-04-25T08:48:37.591Z,52.70
2018-04-25T08:49:43.229Z,52.90
2018-04-25T08:50:48.097Z,52.80
2018-04-25T08:51:53.321Z,52.40
2018-04-25T08:52:58.159Z,52.70
2018-04-25T08:54:02.958Z,52.40
2018-04-25T08:55:07.935Z,52.40
2018-04-25T08:56:12.880Z,51.90
2018-04-25T08:57:17.821Z,51.50
2018-04-25T08:58:22.815Z,51.50
2018-04-25T08:59:27.636Z,52.60
2018-04-25T09:00:32.394Z,51.80
2018-04-25T09:01:37.276Z,51.70
2018-04-25T09:02:42.179Z,52.00
2018-04-25T09:03:47.193Z,52.20
2018-04-25T09:04:52.103Z,52.20
2018-04-25T09:05:56.889Z,52.00
2018-04-25T09:07:02.031Z,51.80
2018-04-25T09:08:06.993Z,51.80
2018-04-25T09:09:11.787Z,51.70
2018-04-25T09:10:16.669Z,52.00
2018-04-25T09:11:21.306Z,51.20
2018-04-25T09:12:26.099Z,51.40
2018-04-25T09:13:31.054Z,51.60
2018-04-25T09:14:35.959Z,51.60
2018-04-25T09:15:40.909Z,51.10
2018-04-25T09:16:45.674Z,50.20
2018-04-25T09:17:50.517Z,49.60
2018-04-25T09:18:55.502Z,49.20
2018-04-25T09:20:00.372Z,49.10
2018-04-25T09:21:05.274Z,49.50
2018-04-25T09:22:10.283Z,50.00
2018-04-25T09:23:14.972Z,50.20
2018-04-25T09:24:20.029Z,50.10
2018-04-25T09:25:25.140Z,49.90
2018-04-25T09:26:30.163Z,49.60
2018-04-25T09:27:35.050Z,49.40
2018-04-25T09:28:39.801Z,49.40
2018-04-25T09:29:44.636Z,49.20
2018-04-25T09:30:49.701Z,49.20
2018-04-25T09:31:54.620Z,49.20
2018-04-25T09:32:59.534Z,49.00
2018-04-25T09:34:04.485Z,48.80
2018-04-25T09:35:09.449Z,48.80
2018-04-25T09:36:14.476Z,48.70
2018-04-25T09:37:19.294Z,48.60
2018-04-25T09:38:24.019Z,48.60
2018-04-25T09:39:29.018Z,48.40
2018-04-25T09:40:33.942Z,48.30
2018-04-25T09:41:38.896Z,48.40
2018-04-25T09:42:44.098Z,48.30
2018-04-25T09:43:49.285Z,48.20
2018-04-25T09:44:54.300Z,48.20
2018-04-25T09:45:59.425Z,47.90
2018-04-25T09:47:04.372Z,47.90
2018-04-25T09:48:09.376Z,47.90
2018-04-25T09:49:14.462Z,47.60
2018-04-25T09:50:19.642Z,47.70
2018-04-25T09:51:24.758Z,47.70
2018-04-25T09:52:29.864Z,47.60
2018-04-25T09:53:34.841Z,47.60
2018-04-25T09:54:39.773Z,47.40
2018-04-25T09:55:44.801Z,47.40
2018-04-25T09:56:49.901Z,47.50
2018-04-25T09:57:55.405Z,47.50
2018-04-25T09:59:00.640Z,47.40
2018-04-25T10:00:05.480Z,47.30
2018-04-25T10:01:10.434Z,47.30
2018-04-25T10:02:15.331Z,47.30
2018-04-25T10:03:20.374Z,47.20
2018-04-25T10:04:25.526Z,47.00
2018-04-25T10:05:30.575Z,47.00
2018-04-25T10:06:35.651Z,47.20
2018-04-25T10:07:40.619Z,47.20
2018-04-25T10:08:45.660Z,47.20
2018-04-25T10:09:50.549Z,47.20
2018-04-25T10:10:55.536Z,47.20
2018-04-25T10:12:01.065Z,47.00
2018-04-25T10:13:06.253Z,46.90
2018-04-25T10:14:11.043Z,46.90
2018-04-25T10:15:15.824Z,46.90
2018-04-25T10:16:21.020Z,46.90
2018-04-25T10:17:26.569Z,47.10
2018-04-25T10:18:31.492Z,47.10
2018-04-25T10:19:36.401Z,47.10
2018-04-25T10:20:41.375Z,47.10
2018-04-25T10:21:46.362Z,47.20
2018-04-25T10:22:51.191Z,47.20
2018-04-25T10:23:56.097Z,47.30
2018-04-25T10:25:00.921Z,47.30
2018-04-25T10:26:05.799Z,47.40
2018-04-25T10:27:10.602Z,47.40
2018-04-25T10:28:15.609Z,47.30
2018-04-25T10:29:20.666Z,47.30
2018-04-25T10:30:25.546Z,47.30
2018-04-25T10:31:30.471Z,47.20
2018-04-25T10:32:35.418Z,47.20
2018-04-25T10:33:40.299Z,47.20
2018-04-25T10:34:45.180Z,47.20
2018-04-25T10:35:50.071Z,47.30
2018-04-25T10:36:55.110Z,47.30
2018-04-25T10:38:00.147Z,47.20
2018-04-25T10:39:05.208Z,47.10
2018-04-25T10:40:10.283Z,47.20
2018-04-25T10:41:15.412Z,47.10
2018-04-25T10:42:20.658Z,46.90
2018-04-25T10:43:25.526Z,46.90
2018-04-25T10:44:30.511Z,46.90
2018-04-25T10:45:35.369Z,46.80
2018-04-25T10:46:40.198Z,46.80
2018-04-25T10:47:45.147Z,46.80
2018-04-25T10:48:50.096Z,46.80
2018-04-25T10:49:55.066Z,46.80
2018-04-25T10:51:00.258Z,47.40
2018-04-25T10:52:05.287Z,46.70
2018-04-25T10:53:10.287Z,46.60
2018-04-25T10:54:15.213Z,46.60
2018-04-25T10:55:20.142Z,46.70
2018-04-25T10:56:25.177Z,46.60
2018-04-25T10:57:30.177Z,46.50
2018-04-25T10:58:35.068Z,46.40
2018-04-25T10:59:40.226Z,46.30
2018-04-25T11:00:45.337Z,46.30
2018-04-25T11:01:50.581Z,46.20
2018-04-25T11:02:55.543Z,46.20
2018-04-25T11:04:00.649Z,46.10
2018-04-25T11:05:05.515Z,46.20
2018-04-25T11:06:10.513Z,46.10
2018-04-25T11:07:15.565Z,46.10
2018-04-25T11:08:20.523Z,46.10
2018-04-25T11:09:25.343Z,46.10
2018-04-25T11:10:30.243Z,46.10
2018-04-25T11:11:35.356Z,45.80
2018-04-25T11:12:40.520Z,45.80
2018-04-25T11:13:45.597Z,45.80
2018-04-25T11:14:50.645Z,45.80
2018-04-25T11:15:55.681Z,45.70
2018-04-25T11:17:00.877Z,45.70
2018-04-25T11:18:05.797Z,45.60
2018-04-25T11:19:10.528Z,45.50
2018-04-25T11:20:15.490Z,45.40
2018-04-25T11:21:20.306Z,45.40
2018-04-25T11:22:25.440Z,45.40
2018-04-25T11:23:30.340Z,45.20
2018-04-25T11:24:35.379Z,45.20
2018-04-25T11:25:40.259Z,45.30
2018-04-25T11:26:44.994Z,45.40
2018-04-25T11:27:49.737Z,45.10
2018-04-25T11:28:54.679Z,45.20
2018-04-25T11:29:59.452Z,45.30
2018-04-25T11:31:04.523Z,45.40
2018-04-25T11:32:09.290Z,45.40
2018-04-25T11:33:14.203Z,45.30
2018-04-25T11:34:19.185Z,45.20
2018-04-25T11:35:24.076Z,45.10
2018-04-25T11:36:29.050Z,45.10
2018-04-25T11:37:33.863Z,45.20
2018-04-25T11:38:38.903Z,45.20
2018-04-25T11:39:44.120Z,45.30
2018-04-25T11:40:49.136Z,45.30
2018-04-25T11:41:54.141Z,45.40
2018-04-25T11:42:58.900Z,45.40
2018-04-25T11:44:03.837Z,45.40
2018-04-25T11:45:08.821Z,45.40
2018-04-25T11:46:13.792Z,45.30
2018-04-25T11:47:18.846Z,45.30
2018-04-25T11:48:23.725Z,45.10
2018-04-25T11:49:28.655Z,45.20
2018-04-25T11:50:33.605Z,45.10
2018-04-25T11:51:38.536Z,45.00
2018-04-25T11:52:43.453Z,45.10
2018-04-25T11:53:48.455Z,45.10
2018-04-25T11:54:53.411Z,45.10
2018-04-25T11:55:58.473Z,45.10
2018-04-25T11:57:03.506Z,45.10
2018-04-25T11:58:08.498Z,45.10
2018-04-25T11:59:13.538Z,45.20
2018-04-25T12:00:18.693Z,45.30
2018-04-25T12:01:23.676Z,45.40
2018-04-25T12:02:28.529Z,45.50
2018-04-25T12:03:33.349Z,45.60
2018-04-25T12:04:38.510Z,45.50
2018-04-25T12:05:43.593Z,45.50
2018-04-25T12:06:48.491Z,45.60
2018-04-25T12:07:53.481Z,45.60
2018-04-25T12:08:58.356Z,45.60
2018-04-25T12:10:03.395Z,45.50
2018-04-25T12:11:08.220Z,45.50
2018-04-25T12:12:13.139Z,45.40
2018-04-25T12:13:18.081Z,45.50
2018-04-25T12:14:23.020Z,45.50
2018-04-25T12:15:27.793Z,45.40
2018-04-25T12:16:32.654Z,45.40
2018-04-25T12:17:37.565Z,45.30
2018-04-25T12:18:42.505Z,45.40
2018-04-25T12:19:47.501Z,45.40
2018-04-25T12:20:52.285Z,45.40
2018-04-25T12:21:57.177Z,45.50
2018-04-25T12:23:02.187Z,45.40
2018-04-25T12:24:06.988Z,45.30
2018-04-25T12:25:11.967Z,45.30
2018-04-25T12:26:16.850Z,45.40
2018-04-25T12:27:21.814Z,45.30
2018-04-25T12:28:26.644Z,45.40
2018-04-25T12:29:31.726Z,45.40
2018-04-25T12:30:36.623Z,45.40
2018-04-25T12:31:41.746Z,45.30
2018-04-25T12:32:46.480Z,45.20
2018-04-25T12:33:51.425Z,45.20
2018-04-25T12:34:56.206Z,45.20
2018-04-25T12:36:01.316Z,45.20
2018-04-25T12:37:06.076Z,45.20
2018-04-25T12:38:10.974Z,45.20
2018-04-25T12:39:15.927Z,45.20
2018-04-25T12:40:21.089Z,45.30
2018-04-25T12:41:26.048Z,45.30
2018-04-25T12:42:30.844Z,45.30
2018-04-25T12:43:35.937Z,45.40
2018-04-25T12:44:40.835Z,45.40
2018-04-25T12:45:45.759Z,45.70
2018-04-25T12:46:50.534Z,45.80
2018-04-25T12:47:55.460Z,45.90
2018-04-25T12:49:00.405Z,46.00
2018-04-25T12:50:05.411Z,46.10
2018-04-25T12:51:10.495Z,46.20
2018-04-25T12:52:15.482Z,46.30
2018-04-25T12:53:20.438Z,46.50
2018-04-25T12:54:25.617Z,46.60
2018-04-25T12:55:30.709Z,46.70
2018-04-25T12:56:35.502Z,46.70
2018-04-25T12:57:40.435Z,46.80
2018-04-25T12:58:45.584Z,46.80
2018-04-25T12:59:50.484Z,46.90
2018-04-25T13:00:55.566Z,46.90
2018-04-25T13:02:00.591Z,46.80
2018-04-25T13:03:05.499Z,46.60
2018-04-25T13:04:10.319Z,46.50
2018-04-25T13:05:15.317Z,46.50
2018-04-25T13:06:20.310Z,46.50
2018-04-25T13:07:25.447Z,46.30
2018-04-25T13:08:30.296Z,46.40
2018-04-25T13:09:35.453Z,46.50
2018-04-25T13:10:40.410Z,46.60
2018-04-25T13:11:45.316Z,46.60
2018-04-25T13:12:50.254Z,46.70
2018-04-25T13:13:55.153Z,46.80
2018-04-25T13:15:00.149Z,46.90
2018-04-25T13:16:05.059Z,46.90
2018-04-25T13:17:09.981Z,46.90
2018-04-25T13:18:14.906Z,47.10
2018-04-25T13:19:19.810Z,47.20
2018-04-25T13:20:24.794Z,47.20
2018-04-25T13:21:29.715Z,47.30
2018-04-25T13:22:34.677Z,47.30
2018-04-25T13:23:39.692Z,47.40
2018-04-25T13:24:44.523Z,47.50
2018-04-25T13:25:49.564Z,47.60
2018-04-25T13:26:54.476Z,47.40
2018-04-25T13:27:59.405Z,47.50
2018-04-25T13:29:04.317Z,47.40
2018-04-25T13:30:09.268Z,47.40
2018-04-25T13:31:14.207Z,47.30
2018-04-25T13:32:19.057Z,47.30
2018-04-25T13:33:24.603Z,47.30
2018-04-25T13:34:29.641Z,47.30
2018-04-25T13:35:34.603Z,47.40
2018-04-25T13:36:39.621Z,47.30
2018-04-25T13:37:44.642Z,47.30
2018-04-25T13:38:49.656Z,47.20
2018-04-25T13:39:54.837Z,47.10
2018-04-25T13:40:59.778Z,47.00
2018-04-25T13:42:04.695Z,47.00
2018-04-25T13:43:09.575Z,47.00
2018-04-25T13:44:14.476Z,47.00
2018-04-25T13:45:19.582Z,47.00
2018-04-25T13:46:24.472Z,47.00
2018-04-25T13:47:29.369Z,46.90
2018-04-25T13:48:34.521Z,47.00
2018-04-25T13:49:39.356Z,47.00
2018-04-25T13:50:44.380Z,47.00
2018-04-25T13:51:49.353Z,47.00
2018-04-25T13:52:54.358Z,47.00
2018-04-25T13:53:59.351Z,47.00
2018-04-25T13:55:04.620Z,47.00
2018-04-25T13:56:09.768Z,47.00
2018-04-25T13:57:14.717Z,47.00